sensor_id;sensor_type;location;lat;lon;timestamp;pressure;altitude;pressure_sealevel;temperature;humidity
706;BME280;21234;48.690;9.016;2023-02-23T00:01:18;95759.69;;;8.65;94.92
706;BME280;21234;48.690;9.016;2023-02-23T00:03:46;95757.97;;;8.59;95.95
706;BME280;21234;48.690;9.016;2023-02-23T00:06:16;95756.84;;;8.55;96.98
706;BME280;21234;48.690;9.016;2023-02-23T00:08:43;95766.94;;;8.60;97.35
706;BME280;21234;48.690;9.016;2023-02-23T00:11:13;95751.50;;;8.60;98.37
706;BME280;21234;48.690;9.016;2023-02-23T00:13:42;95759.13;;;8.63;99.50
706;BME280;21234;48.690;9.016;2023-02-23T00:16:12;95758.94;;;8.70;100.00
706;BME280;21234;48.690;9.016;2023-02-23T00:18:42;95758.38;;;8.68;100.00
706;BME280;21234;48.690;9.016;2023-02-23T00:21:13;95760.59;;;8.71;100.00
706;BME280;21234;48.690;9.016;2023-02-23T00:23:41;95754.84;;;8.67;100.00
706;BME280;21234;48.690;9.016;2023-02-23T00:26:10;95750.75;;;8.65;100.00
706;BME280;21234;48.690;9.016;2023-02-23T00:28:40;95749.94;;;8.64;100.00
706;BME280;21234;48.690;9.016;2023-02-23T00:31:08;95746.31;;;8.59;100.00
706;BME280;21234;48.690;9.016;2023-02-23T00:33:35;95743.78;;;8.52;100.00
706;BME280;21234;48.690;9.016;2023-02-23T00:36:04;95749.09;;;8.42;100.00
706;BME280;21234;48.690;9.016;2023-02-23T00:38:32;95750.06;;;8.36;100.00
706;BME280;21234;48.690;9.016;2023-02-23T00:41:03;95746.19;;;8.32;100.00
706;BME280;21234;48.690;9.016;2023-02-23T00:43:33;95741.38;;;8.34;100.00
706;BME280;21234;48.690;9.016;2023-02-23T00:46:01;95743.97;;;8.29;100.00
706;BME280;21234;48.690;9.016;2023-02-23T00:48:31;95745.78;;;8.23;100.00
706;BME280;21234;48.690;9.016;2023-02-23T00:50:58;95741.84;;;8.31;100.00
706;BME280;21234;48.690;9.016;2023-02-23T00:53:25;95748.91;;;8.32;100.00
706;BME280;21234;48.690;9.016;2023-02-23T00:55:52;95743.06;;;8.23;100.00
706;BME280;21234;48.690;9.016;2023-02-23T00:58:19;95740.38;;;8.23;100.00
706;BME280;21234;48.690;9.016;2023-02-23T01:00:46;95745.44;;;8.20;100.00
706;BME280;21234;48.690;9.016;2023-02-23T01:03:14;95748.41;;;8.18;100.00
706;BME280;21234;48.690;9.016;2023-02-23T01:05:41;95744.00;;;8.12;100.00
706;BME280;21234;48.690;9.016;2023-02-23T01:08:08;95737.78;;;8.12;100.00
706;BME280;21234;48.690;9.016;2023-02-23T01:10:38;95742.03;;;8.07;100.00
706;BME280;21234;48.690;9.016;2023-02-23T01:13:07;95741.94;;;8.02;100.00
706;BME280;21234;48.690;9.016;2023-02-23T01:15:34;95738.66;;;8.00;100.00
706;BME280;21234;48.690;9.016;2023-02-23T01:18:00;95737.03;;;7.99;100.00
706;BME280;21234;48.690;9.016;2023-02-23T01:20:28;95732.09;;;7.96;100.00
706;BME280;21234;48.690;9.016;2023-02-23T01:22:55;95733.09;;;7.90;100.00
706;BME280;21234;48.690;9.016;2023-02-23T01:25:22;95734.25;;;7.94;100.00
706;BME280;21234;48.690;9.016;2023-02-23T01:27:52;95728.00;;;7.94;100.00
706;BME280;21234;48.690;9.016;2023-02-23T01:30:20;95727.19;;;7.93;100.00
706;BME280;21234;48.690;9.016;2023-02-23T01:32:47;95735.13;;;8.00;100.00
706;BME280;21234;48.690;9.016;2023-02-23T01:35:14;95729.72;;;8.00;100.00
706;BME280;21234;48.690;9.016;2023-02-23T01:37:42;95730.47;;;7.95;100.00
706;BME280;21234;48.690;9.016;2023-02-23T01:40:12;95728.81;;;7.94;100.00
706;BME280;21234;48.690;9.016;2023-02-23T01:42:43;95727.84;;;8.00;100.00
706;BME280;21234;48.690;9.016;2023-02-23T01:45:31;95729.25;;;8.03;100.00
706;BME280;21234;48.690;9.016;2023-02-23T01:48:02;95723.50;;;7.99;100.00
706;BME280;21234;48.690;9.016;2023-02-23T01:50:36;95731.03;;;7.97;100.00
706;BME280;21234;48.690;9.016;2023-02-23T01:53:07;95728.81;;;7.94;100.00
706;BME280;21234;48.690;9.016;2023-02-23T01:55:33;95729.16;;;7.98;100.00
706;BME280;21234;48.690;9.016;2023-02-23T01:58:07;95728.81;;;7.94;100.00
706;BME280;21234;48.690;9.016;2023-02-23T02:00:41;95724.72;;;7.92;100.00
706;BME280;21234;48.690;9.016;2023-02-23T02:03:12;95720.88;;;7.88;100.00
706;BME280;21234;48.690;9.016;2023-02-23T02:05:40;95716.19;;;7.83;100.00
706;BME280;21234;48.690;9.016;2023-02-23T02:08:09;95728.16;;;7.87;100.00
706;BME280;21234;48.690;9.016;2023-02-23T02:10:37;95723.19;;;7.79;100.00
706;BME280;21234;48.690;9.016;2023-02-23T02:13:12;95726.72;;;7.80;100.00
706;BME280;21234;48.690;9.016;2023-02-23T02:18:34;95721.03;;;7.81;100.00
706;BME280;21234;48.690;9.016;2023-02-23T02:21:27;95717.00;;;7.84;100.00
706;BME280;21234;48.690;9.016;2023-02-23T02:24:21;95712.66;;;7.83;100.00
706;BME280;21234;48.690;9.016;2023-02-23T02:27:03;95712.09;;;7.81;100.00
706;BME280;21234;48.690;9.016;2023-02-23T02:30:05;95720.63;;;7.89;100.00
706;BME280;21234;48.690;9.016;2023-02-23T02:38:52;95706.69;;;7.97;100.00
706;BME280;21234;48.690;9.016;2023-02-23T02:41:28;95705.13;;;8.01;100.00
706;BME280;21234;48.690;9.016;2023-02-23T02:44:06;95708.91;;;8.00;100.00
706;BME280;21234;48.690;9.016;2023-02-23T02:46:37;95703.00;;;8.03;100.00
706;BME280;21234;48.690;9.016;2023-02-23T02:49:10;95698.06;;;8.00;100.00
706;BME280;21234;48.690;9.016;2023-02-23T02:51:45;95698.72;;;7.91;100.00
706;BME280;21234;48.690;9.016;2023-02-23T02:54:22;95699.63;;;7.96;100.00
706;BME280;21234;48.690;9.016;2023-02-23T02:56:52;95697.16;;;7.95;100.00
706;BME280;21234;48.690;9.016;2023-02-23T02:59:22;95701.19;;;7.92;100.00
706;BME280;21234;48.690;9.016;2023-02-23T03:02:13;95698.72;;;7.91;100.00
706;BME280;21234;48.690;9.016;2023-02-23T03:04:58;95695.69;;;7.87;100.00
706;BME280;21234;48.690;9.016;2023-02-23T03:07:49;95695.13;;;7.85;100.00
706;BME280;21234;48.690;9.016;2023-02-23T03:10:43;95699.72;;;7.85;100.00
706;BME280;21234;48.690;9.016;2023-02-23T03:13:38;95697.31;;;7.88;100.00
706;BME280;21234;48.690;9.016;2023-02-23T03:16:30;95697.41;;;7.93;100.00
706;BME280;21234;48.690;9.016;2023-02-23T03:19:22;95696.19;;;8.01;100.00
706;BME280;21234;48.690;9.016;2023-02-23T03:22:16;95692.97;;;8.04;100.00
706;BME280;21234;48.690;9.016;2023-02-23T03:25:04;95703.06;;;8.08;100.00
706;BME280;21234;48.690;9.016;2023-02-23T03:27:54;95703.72;;;7.99;100.00
706;BME280;21234;48.690;9.016;2023-02-23T03:30:46;95700.78;;;8.00;100.00
706;BME280;21234;48.690;9.016;2023-02-23T03:33:38;95707.34;;;8.04;100.00
706;BME280;21234;48.690;9.016;2023-02-23T03:36:26;95705.19;;;8.06;100.00
706;BME280;21234;48.690;9.016;2023-02-23T03:39:16;95703.00;;;8.03;100.00
706;BME280;21234;48.690;9.016;2023-02-23T03:42:06;95707.59;;;8.03;100.00
706;BME280;21234;48.690;9.016;2023-02-23T03:44:54;95698.31;;;7.99;100.00
706;BME280;21234;48.690;9.016;2023-02-23T03:47:41;95706.75;;;8.02;100.00
706;BME280;21234;48.690;9.016;2023-02-23T03:50:31;95711.09;;;8.03;100.00
706;BME280;21234;48.690;9.016;2023-02-23T03:53:20;95708.16;;;8.05;100.00
706;BME280;21234;48.690;9.016;2023-02-23T03:56:08;95704.97;;;8.08;100.00
706;BME280;21234;48.690;9.016;2023-02-23T03:58:57;95711.44;;;8.07;100.00
706;BME280;21234;48.690;9.016;2023-02-23T04:01:44;95712.31;;;8.13;100.00
706;BME280;21234;48.690;9.016;2023-02-23T04:04:29;95708.25;;;8.10;100.00
706;BME280;21234;48.690;9.016;2023-02-23T04:07:16;95708.81;;;8.12;100.00
706;BME280;21234;48.690;9.016;2023-02-23T04:10:02;95712.59;;;8.11;100.00
706;BME280;21234;48.690;9.016;2023-02-23T04:12:51;95708.47;;;8.08;100.00
706;BME280;21234;48.690;9.016;2023-02-23T04:15:43;95708.97;;;8.05;100.00
706;BME280;21234;48.690;9.016;2023-02-23T04:18:15;95708.56;;;7.97;100.00
706;BME280;21234;48.690;9.016;2023-02-23T04:20:42;95707.34;;;8.04;100.00
706;BME280;21234;48.690;9.016;2023-02-23T04:23:09;95708.66;;;8.02;100.00
706;BME280;21234;48.690;9.016;2023-02-23T04:25:35;95705.84;;;7.97;100.00
706;BME280;21234;48.690;9.016;2023-02-23T04:28:02;95710.63;;;8.06;100.00
706;BME280;21234;48.690;9.016;2023-02-23T04:30:29;95707.25;;;7.99;100.00
706;BME280;21234;48.690;9.016;2023-02-23T04:32:56;95709.97;;;7.99;100.00
706;BME280;21234;48.690;9.016;2023-02-23T04:35:25;95708.66;;;8.02;100.00
706;BME280;21234;48.690;9.016;2023-02-23T04:37:54;95713.06;;;8.08;100.00
706;BME280;21234;48.690;9.016;2023-02-23T04:40:21;95710.38;;;8.08;100.00
706;BME280;21234;48.690;9.016;2023-02-23T04:42:48;95710.03;;;8.04;100.00
706;BME280;21234;48.690;9.016;2023-02-23T04:45:15;95719.81;;;8.05;100.00
706;BME280;21234;48.690;9.016;2023-02-23T04:47:41;95715.13;;;8.01;100.00
706;BME280;21234;48.690;9.016;2023-02-23T04:50:09;95718.09;;;7.99;100.00
706;BME280;21234;48.690;9.016;2023-02-23T04:52:38;95718.31;;;7.98;100.00
706;BME280;21234;48.690;9.016;2023-02-23T04:55:05;95717.25;;;7.99;100.00
706;BME280;21234;48.690;9.016;2023-02-23T04:57:32;95719.81;;;8.05;100.00
706;BME280;21234;48.690;9.016;2023-02-23T04:59:59;95717.00;;;8.00;100.00
706;BME280;21234;48.690;9.016;2023-02-23T05:02:26;95717.50;;;7.97;100.00
706;BME280;21234;48.690;9.016;2023-02-23T05:04:53;95718.50;;;7.91;100.00
706;BME280;21234;48.690;9.016;2023-02-23T05:07:19;95718.72;;;7.90;100.00
706;BME280;21234;48.690;9.016;2023-02-23T05:09:47;95723.72;;;7.81;100.00
706;BME280;21234;48.690;9.016;2023-02-23T05:12:14;95714.88;;;7.86;100.00
706;BME280;21234;48.690;9.016;2023-02-23T05:14:41;95715.53;;;7.93;100.00
706;BME280;21234;48.690;9.016;2023-02-23T05:17:07;95719.41;;;7.97;100.00
706;BME280;21234;48.690;9.016;2023-02-23T05:19:34;95716.13;;;7.95;100.00
706;BME280;21234;48.690;9.016;2023-02-23T05:22:01;95715.94;;;7.85;100.00
706;BME280;21234;48.690;9.016;2023-02-23T05:24:28;95717.09;;;7.89;100.00
706;BME280;21234;48.690;9.016;2023-02-23T05:26:56;95720.38;;;7.91;100.00
706;BME280;21234;48.690;9.016;2023-02-23T05:29:23;95716.75;;;7.85;100.00
706;BME280;21234;48.690;9.016;2023-02-23T05:31:49;95720.03;;;7.87;100.00
706;BME280;21234;48.690;9.016;2023-02-23T05:34:16;95717.91;;;7.89;100.00
706;BME280;21234;48.690;9.016;2023-02-23T05:36:43;95712.81;;;7.93;100.00
706;BME280;21234;48.690;9.016;2023-02-23T05:39:09;95712.59;;;7.94;100.00
706;BME280;21234;48.690;9.016;2023-02-23T05:41:37;95708.00;;;7.95;100.00
706;BME280;21234;48.690;9.016;2023-02-23T05:44:05;95714.81;;;7.97;100.00
706;BME280;21234;48.690;9.016;2023-02-23T05:46:32;95722.69;;;7.99;100.00
706;BME280;21234;48.690;9.016;2023-02-23T05:48:59;95723.41;;;7.94;100.00
706;BME280;21234;48.690;9.016;2023-02-23T05:51:28;95714.63;;;7.87;100.00
706;BME280;21234;48.690;9.016;2023-02-23T05:53:54;95722.25;;;7.90;100.00
706;BME280;21234;48.690;9.016;2023-02-23T05:56:21;95721.44;;;7.90;100.00
706;BME280;21234;48.690;9.016;2023-02-23T05:58:48;95723.75;;;7.98;100.00
706;BME280;21234;48.690;9.016;2023-02-23T06:01:17;95720.88;;;7.88;100.00
706;BME280;21234;48.690;9.016;2023-02-23T06:03:45;95719.47;;;7.85;100.00
706;BME280;21234;48.690;9.016;2023-02-23T06:06:12;95714.53;;;7.82;100.00
706;BME280;21234;48.690;9.016;2023-02-23T06:08:38;95722.66;;;7.82;100.00
706;BME280;21234;48.690;9.016;2023-02-23T06:11:05;95722.75;;;7.87;100.00
706;BME280;21234;48.690;9.016;2023-02-23T06:13:32;95720.03;;;7.87;100.00
706;BME280;21234;48.690;9.016;2023-02-23T06:15:59;95725.47;;;7.87;100.00
706;BME280;21234;48.690;9.016;2023-02-23T06:18:28;95727.44;;;7.92;100.00
706;BME280;21234;48.690;9.016;2023-02-23T06:20:57;95728.75;;;7.89;100.00
706;BME280;21234;48.690;9.016;2023-02-23T06:23:24;95724.16;;;7.90;100.00
706;BME280;21234;48.690;9.016;2023-02-23T06:25:51;95731.53;;;7.94;100.00
706;BME280;21234;48.690;9.016;2023-02-23T06:28:18;95739.31;;;7.91;100.00
706;BME280;21234;48.690;9.016;2023-02-23T06:30:45;95740.38;;;7.90;100.00
706;BME280;21234;48.690;9.016;2023-02-23T06:33:12;95735.78;;;7.90;100.00
706;BME280;21234;48.690;9.016;2023-02-23T06:35:41;95740.47;;;7.95;100.00
706;BME280;21234;48.690;9.016;2023-02-23T06:38:07;95744.72;;;7.91;100.00
706;BME280;21234;48.690;9.016;2023-02-23T06:40:34;95744.50;;;7.92;100.00
706;BME280;21234;48.690;9.016;2023-02-23T06:43:02;95747.53;;;7.96;100.00
706;BME280;21234;48.690;9.016;2023-02-23T06:45:29;95751.69;;;7.87;100.00
706;BME280;21234;48.690;9.016;2023-02-23T06:47:56;95747.59;;;7.84;100.00
706;BME280;21234;48.690;9.016;2023-02-23T06:50:23;95752.13;;;7.79;100.00
706;BME280;21234;48.690;9.016;2023-02-23T06:52:52;95752.69;;;7.81;100.00
706;BME280;21234;48.690;9.016;2023-02-23T06:55:23;95759.97;;;7.80;100.00
706;BME280;21234;48.690;9.016;2023-02-23T06:57:49;95761.13;;;7.84;100.00
706;BME280;21234;48.690;9.016;2023-02-23T07:00:19;95766.47;;;7.79;100.00
706;BME280;21234;48.690;9.016;2023-02-23T07:02:46;95763.25;;;7.82;100.00
706;BME280;21234;48.690;9.016;2023-02-23T07:05:13;95773.78;;;7.79;100.00
706;BME280;21234;48.690;9.016;2023-02-23T07:07:39;95775.16;;;7.81;100.00
706;BME280;21234;48.690;9.016;2023-02-23T07:10:09;95779.25;;;7.84;100.00
706;BME280;21234;48.690;9.016;2023-02-23T07:12:36;95779.34;;;7.89;100.00
706;BME280;21234;48.690;9.016;2023-02-23T07:15:03;95785.41;;;7.96;100.00
706;BME280;21234;48.690;9.016;2023-02-23T07:17:30;95784.44;;;8.02;100.00
706;BME280;21234;48.690;9.016;2023-02-23T07:19:56;95787.78;;;7.92;100.00
706;BME280;21234;48.690;9.016;2023-02-23T07:22:23;95788.75;;;7.86;100.00
706;BME280;21234;48.690;9.016;2023-02-23T07:24:53;95783.94;;;7.88;100.00
706;BME280;21234;48.690;9.016;2023-02-23T07:27:21;95785.66;;;7.94;100.00
706;BME280;21234;48.690;9.016;2023-02-23T07:29:48;95792.72;;;7.95;100.00
706;BME280;21234;48.690;9.016;2023-02-23T07:32:15;95788.22;;;8.01;100.00
706;BME280;21234;48.690;9.016;2023-02-23T07:34:42;95789.19;;;7.95;100.00
706;BME280;21234;48.690;9.016;2023-02-23T07:37:09;95792.97;;;8.11;100.00
706;BME280;21234;48.690;9.016;2023-02-23T07:39:36;95798.06;;;8.07;100.00
706;BME280;21234;48.690;9.016;2023-02-23T07:42:03;95799.38;;;8.04;100.00
706;BME280;21234;48.690;9.016;2023-02-23T07:44:31;95797.38;;;8.17;100.00
706;BME280;21234;48.690;9.016;2023-02-23T07:46:57;95795.66;;;8.27;100.00
706;BME280;21234;48.690;9.016;2023-02-23T07:49:24;95791.19;;;8.33;100.00
706;BME280;21234;48.690;9.016;2023-02-23T07:51:51;95794.13;;;8.31;100.00
706;BME280;21234;48.690;9.016;2023-02-23T07:54:17;95788.38;;;8.28;100.00
706;BME280;21234;48.690;9.016;2023-02-23T07:56:44;95792.34;;;8.37;100.00
706;BME280;21234;48.690;9.016;2023-02-23T07:59:11;95798.41;;;8.44;100.00
706;BME280;21234;48.690;9.016;2023-02-23T08:01:39;95793.25;;;8.43;100.00
706;BME280;21234;48.690;9.016;2023-02-23T08:04:06;95798.31;;;8.39;100.00
706;BME280;21234;48.690;9.016;2023-02-23T08:06:33;95795.69;;;8.44;100.00
706;BME280;21234;48.690;9.016;2023-02-23T08:09:00;95792.47;;;8.47;100.00
706;BME280;21234;48.690;9.016;2023-02-23T08:11:26;95795.59;;;8.56;100.00
706;BME280;21234;48.690;9.016;2023-02-23T08:13:54;95799.50;;;8.65;100.00
706;BME280;21234;48.690;9.016;2023-02-23T08:16:24;95799.84;;;8.68;100.00
706;BME280;21234;48.690;9.016;2023-02-23T08:18:52;95800.41;;;8.70;100.00
706;BME280;21234;48.690;9.016;2023-02-23T08:21:19;95798.84;;;8.74;100.00
706;BME280;21234;48.690;9.016;2023-02-23T08:23:46;95799.84;;;8.68;100.00
706;BME280;21234;48.690;9.016;2023-02-23T08:26:13;95799.94;;;8.57;100.00
706;BME280;21234;48.690;9.016;2023-02-23T08:28:39;95805.69;;;8.60;100.00
706;BME280;21234;48.690;9.016;2023-02-23T08:31:09;95809.28;;;8.49;100.00
706;BME280;21234;48.690;9.016;2023-02-23T08:33:36;95802.22;;;8.65;100.00
706;BME280;21234;48.690;9.016;2023-02-23T08:36:05;95802.38;;;8.75;100.00
706;BME280;21234;48.690;9.016;2023-02-23T08:38:32;95798.97;;;8.85;100.00
706;BME280;21234;48.690;9.016;2023-02-23T08:41:00;95804.97;;;8.87;100.00
706;BME280;21234;48.690;9.016;2023-02-23T08:43:28;95800.00;;;9.00;100.00
706;BME280;21234;48.690;9.016;2023-02-23T08:45:54;95803.03;;;9.04;100.00
706;BME280;21234;48.690;9.016;2023-02-23T08:48:21;95800.38;;;9.09;100.00
706;BME280;21234;48.690;9.016;2023-02-23T08:50:49;95798.50;;;9.09;100.00
706;BME280;21234;48.690;9.016;2023-02-23T08:53:17;95799.34;;;9.15;100.00
706;BME280;21234;48.690;9.016;2023-02-23T08:55:44;95804.66;;;9.27;100.00
706;BME280;21234;48.690;9.016;2023-02-23T08:58:10;95809.16;;;9.38;100.00
706;BME280;21234;48.690;9.016;2023-02-23T09:00:37;95811.06;;;9.42;100.00
706;BME280;21234;48.690;9.016;2023-02-23T09:03:05;95813.13;;;9.30;100.00
706;BME280;21234;48.690;9.016;2023-02-23T09:05:32;95813.97;;;9.14;100.00
706;BME280;21234;48.690;9.016;2023-02-23T09:07:58;95810.41;;;9.30;100.00
706;BME280;21234;48.690;9.016;2023-02-23T09:10:27;95811.84;;;9.38;100.00
706;BME280;21234;48.690;9.016;2023-02-23T09:12:54;95812.69;;;9.38;100.00
706;BME280;21234;48.690;9.016;2023-02-23T09:15:21;95813.28;;;9.46;100.00
706;BME280;21234;48.690;9.016;2023-02-23T09:17:47;95811.38;;;9.46;100.00
706;BME280;21234;48.690;9.016;2023-02-23T09:20:15;95816.94;;;9.56;100.00
706;BME280;21234;48.690;9.016;2023-02-23T09:22:42;95820.84;;;9.43;99.43
706;BME280;21234;48.690;9.016;2023-02-23T09:25:13;95818.75;;;9.51;100.00
706;BME280;21234;48.690;9.016;2023-02-23T09:27:43;95820.53;;;9.62;100.00
706;BME280;21234;48.690;9.016;2023-02-23T09:30:11;95822.53;;;9.71;99.10
706;BME280;21234;48.690;9.016;2023-02-23T09:32:43;95812.75;;;9.70;98.03
706;BME280;21234;48.690;9.016;2023-02-23T09:35:09;95822.13;;;9.85;96.80
706;BME280;21234;48.690;9.016;2023-02-23T09:37:36;95814.47;;;10.08;98.05
706;BME280;21234;48.690;9.016;2023-02-23T09:40:04;95808.63;;;10.22;95.69
706;BME280;21234;48.690;9.016;2023-02-23T09:42:36;95806.13;;;10.47;92.56
706;BME280;21234;48.690;9.016;2023-02-23T09:45:22;95805.19;;;10.73;91.38
706;BME280;21234;48.690;9.016;2023-02-23T09:48:04;95804.13;;;10.74;89.59
706;BME280;21234;48.690;9.016;2023-02-23T09:50:33;95809.19;;;10.98;88.87
706;BME280;21234;48.690;9.016;2023-02-23T09:53:04;95807.28;;;10.98;87.37
706;BME280;21234;48.690;9.016;2023-02-23T09:55:32;95810.03;;;11.08;87.54
706;BME280;21234;48.690;9.016;2023-02-23T09:58:04;95809.00;;;10.67;83.48
706;BME280;21234;48.690;9.016;2023-02-23T10:00:38;95805.47;;;10.67;84.86
706;BME280;21234;48.690;9.016;2023-02-23T10:03:21;95812.63;;;10.83;84.32
706;BME280;21234;48.690;9.016;2023-02-23T10:05:54;95812.44;;;11.00;82.70
706;BME280;21234;48.690;9.016;2023-02-23T10:08:32;95813.00;;;11.02;82.67
706;BME280;21234;48.690;9.016;2023-02-23T10:11:09;95814.13;;;11.11;82.99
706;BME280;21234;48.690;9.016;2023-02-23T10:13:45;95817.09;;;11.09;80.54
706;BME280;21234;48.690;9.016;2023-02-23T10:16:18;95814.38;;;11.09;82.13
706;BME280;21234;48.690;9.016;2023-02-23T10:18:50;95816.31;;;11.14;81.03
706;BME280;21234;48.690;9.016;2023-02-23T10:21:26;95814.09;;;11.06;78.60
706;BME280;21234;48.690;9.016;2023-02-23T10:23:59;95815.03;;;11.27;80.31
706;BME280;21234;48.690;9.016;2023-02-23T10:26:34;95810.44;;;11.37;79.42
706;BME280;21234;48.690;9.016;2023-02-23T10:29:16;95811.81;;;11.45;79.02
706;BME280;21234;48.690;9.016;2023-02-23T10:31:48;95810.06;;;11.14;71.80
706;BME280;21234;48.690;9.016;2023-02-23T10:34:16;95805.50;;;11.24;71.10
706;BME280;21234;48.690;9.016;2023-02-23T10:36:46;95809.63;;;11.42;75.73
706;BME280;21234;48.690;9.016;2023-02-23T10:39:16;95808.31;;;11.55;72.87
706;BME280;21234;48.690;9.016;2023-02-23T10:41:43;95817.31;;;11.55;70.44
706;BME280;21234;48.690;9.016;2023-02-23T10:44:16;95816.00;;;11.68;72.83
706;BME280;21234;48.690;9.016;2023-02-23T10:46:49;95808.34;;;11.60;71.77
706;BME280;21234;48.690;9.016;2023-02-23T10:49:19;95810.28;;;11.74;74.19
706;BME280;21234;48.690;9.016;2023-02-23T10:51:47;95812.72;;;11.76;72.21
706;BME280;21234;48.690;9.016;2023-02-23T10:54:39;95811.69;;;11.82;72.49
706;BME280;21234;48.690;9.016;2023-02-23T10:57:11;95806.53;;;11.91;70.88
706;BME280;21234;48.690;9.016;2023-02-23T11:00:21;95797.56;;;11.95;71.04
706;BME280;21234;48.690;9.016;2023-02-23T11:02:54;95812.28;;;11.94;72.11
706;BME280;21234;48.690;9.016;2023-02-23T11:05:34;95800.56;;;11.94;73.92
706;BME280;21234;48.690;9.016;2023-02-23T11:08:09;95798.13;;;11.97;72.77
706;BME280;21234;48.690;9.016;2023-02-23T11:10:36;95798.09;;;11.92;71.96
706;BME280;21234;48.690;9.016;2023-02-23T11:13:03;95800.00;;;11.92;74.36
706;BME280;21234;48.690;9.016;2023-02-23T11:15:31;95793.22;;;11.99;77.80
706;BME280;21234;48.690;9.016;2023-02-23T11:18:02;95795.94;;;12.15;73.64
706;BME280;21234;48.690;9.016;2023-02-23T11:20:32;95796.47;;;12.06;73.14
706;BME280;21234;48.690;9.016;2023-02-23T11:23:00;95798.94;;;12.13;74.76
706;BME280;21234;48.690;9.016;2023-02-23T11:25:34;95791.06;;;12.27;75.14
706;BME280;21234;48.690;9.016;2023-02-23T11:28:03;95783.97;;;12.31;75.61
706;BME280;21234;48.690;9.016;2023-02-23T11:30:34;95784.50;;;12.23;75.44
706;BME280;21234;48.690;9.016;2023-02-23T11:33:15;95783.44;;;12.34;75.64
706;BME280;21234;48.690;9.016;2023-02-23T11:35:44;95782.59;;;12.38;71.69
706;BME280;21234;48.690;9.016;2023-02-23T11:38:15;95779.34;;;12.26;69.09
706;BME280;21234;48.690;9.016;2023-02-23T11:40:58;95774.16;;;12.30;71.44
706;BME280;21234;48.690;9.016;2023-02-23T11:43:25;95780.13;;;12.37;71.43
706;BME280;21234;48.690;9.016;2023-02-23T11:45:53;95773.88;;;12.41;72.95
706;BME280;21234;48.690;9.016;2023-02-23T11:48:26;95767.03;;;12.39;73.75
706;BME280;21234;48.690;9.016;2023-02-23T11:50:54;95769.53;;;12.25;70.73
706;BME280;21234;48.690;9.016;2023-02-23T11:53:27;95768.69;;;12.20;70.82
706;BME280;21234;48.690;9.016;2023-02-23T11:55:58;95765.44;;;12.23;71.70
706;BME280;21234;48.690;9.016;2023-02-23T11:58:32;95762.72;;;12.33;70.98
706;BME280;21234;48.690;9.016;2023-02-23T12:01:02;95765.41;;;12.38;69.99
706;BME280;21234;48.690;9.016;2023-02-23T12:03:38;95757.22;;;12.53;71.00
706;BME280;21234;48.690;9.016;2023-02-23T12:06:10;95757.44;;;12.82;73.36
706;BME280;21234;48.690;9.016;2023-02-23T12:08:40;95762.88;;;12.92;70.98
706;BME280;21234;48.690;9.016;2023-02-23T12:11:11;95757.41;;;12.97;68.44
706;BME280;21234;48.690;9.016;2023-02-23T12:13:44;95750.88;;;12.98;68.79
706;BME280;21234;48.690;9.016;2023-02-23T12:16:15;95750.09;;;12.67;68.13
706;BME280;21234;48.690;9.016;2023-02-23T12:18:49;95755.06;;;12.50;68.29
706;BME280;21234;48.690;9.016;2023-02-23T12:21:28;95754.25;;;12.39;68.74
706;BME280;21234;48.690;9.016;2023-02-23T12:24:04;95746.91;;;12.30;70.99
706;BME280;21234;48.690;9.016;2023-02-23T12:26:42;95746.09;;;12.24;69.14
706;BME280;21234;48.690;9.016;2023-02-23T12:29:16;95749.91;;;12.23;70.85
706;BME280;21234;48.690;9.016;2023-02-23T12:31:47;95745.81;;;12.26;72.05
706;BME280;21234;48.690;9.016;2023-02-23T12:34:21;95749.63;;;12.25;71.56
706;BME280;21234;48.690;9.016;2023-02-23T12:36:54;95738.19;;;12.13;72.69
706;BME280;21234;48.690;9.016;2023-02-23T12:39:27;95745.25;;;12.03;74.25
706;BME280;21234;48.690;9.016;2023-02-23T12:42:01;95737.66;;;12.00;74.21
706;BME280;21234;48.690;9.016;2023-02-23T12:44:36;95738.72;;;11.94;73.33
706;BME280;21234;48.690;9.016;2023-02-23T12:47:10;95734.09;;;11.90;72.39
706;BME280;21234;48.690;9.016;2023-02-23T12:49:43;95736.25;;;11.83;72.71
706;BME280;21234;48.690;9.016;2023-02-23T12:52:15;95727.81;;;11.79;73.66
706;BME280;21234;48.690;9.016;2023-02-23T12:54:45;95736.75;;;11.74;72.71
706;BME280;21234;48.690;9.016;2023-02-23T12:57:19;95729.69;;;11.68;73.00
706;BME280;21234;48.690;9.016;2023-02-23T13:00:06;95725.88;;;11.64;76.10
706;BME280;21234;48.690;9.016;2023-02-23T13:02:52;95731.03;;;11.61;75.77
706;BME280;21234;48.690;9.016;2023-02-23T13:05:27;95729.66;;;11.58;76.35
706;BME280;21234;48.690;9.016;2023-02-23T13:08:02;95729.13;;;11.56;77.78
706;BME280;21234;48.690;9.016;2023-02-23T13:10:41;95727.22;;;11.57;76.65
706;BME280;21234;48.690;9.016;2023-02-23T13:13:22;95717.16;;;11.57;76.23
706;BME280;21234;48.690;9.016;2023-02-23T13:15:57;95725.06;;;11.64;76.84
706;BME280;21234;48.690;9.016;2023-02-23T13:18:28;95731.56;;;11.58;75.71
706;BME280;21234;48.690;9.016;2023-02-23T13:21:04;95728.31;;;11.56;77.49
706;BME280;21234;48.690;9.016;2023-02-23T13:23:35;95728.00;;;11.47;77.18
706;BME280;21234;48.690;9.016;2023-02-23T13:26:11;95729.88;;;11.41;77.72
706;BME280;21234;48.690;9.016;2023-02-23T13:28:48;95731.50;;;11.32;79.42
706;BME280;21234;48.690;9.016;2023-02-23T13:31:24;95728.22;;;11.25;82.63
706;BME280;21234;48.690;9.016;2023-02-23T13:33:52;95730.63;;;11.17;84.08
706;BME280;21234;48.690;9.016;2023-02-23T13:36:21;95730.09;;;11.15;85.65
706;BME280;21234;48.690;9.016;2023-02-23T13:39:14;95731.16;;;11.03;89.54
706;BME280;21234;48.690;9.016;2023-02-23T13:41:49;95733.28;;;10.96;90.22
706;BME280;21234;48.690;9.016;2023-02-23T13:44:22;95726.75;;;10.97;90.44
706;BME280;21234;48.690;9.016;2023-02-23T13:46:56;95723.22;;;10.97;94.76
706;BME280;21234;48.690;9.016;2023-02-23T13:49:35;95731.06;;;10.88;95.61
706;BME280;21234;48.690;9.016;2023-02-23T13:52:15;95724.25;;;10.86;95.51
706;BME280;21234;48.690;9.016;2023-02-23T13:54:53;95719.59;;;10.76;88.88
706;BME280;21234;48.690;9.016;2023-02-23T13:57:22;95717.69;;;10.76;93.76